Time;durP1;ratioP1;P1;durP2;ratioP2;P2;SDS_P1;SDS_P2;PMS_P1;PMS_P2;Temp;Humidity;BMP_temperature;BMP_pressure;BME280_temperature;BME280_humidity;BME280_pressure;Samples;Min_cycle;Max_cycle;Signal;HPM_P1;HPM_P2
2023/03/27 00:02:23;;;;;;;7.33;7.10;;;;;;;1.78;100.00;100918.75;5012179;28;20439;-46
2023/03/27 00:04:53;;;;;;;8.27;7.97;;;;;;;1.79;100.00;100926.50;5011643;28;20469;-43
2023/03/27 00:07:21;;;;;;;9.47;8.50;;;;;;;1.74;100.00;100925.22;5012374;28;20560;-46
2023/03/27 00:09:50;;;;;;;10.80;8.77;;;;;;;1.73;100.00;100924.44;5012309;28;20784;-46
2023/03/27 00:12:18;;;;;;;8.00;7.50;;;;;;;1.70;100.00;100931.75;5011917;28;20430;-44
2023/03/27 00:14:47;;;;;;;8.20;7.73;;;;;;;1.66;100.00;100928.53;5010828;28;20461;-43
2023/03/27 00:17:14;;;;;;;7.90;7.40;;;;;;;1.70;100.00;100929.13;5012420;28;20521;-45
2023/03/27 00:19:42;;;;;;;7.27;6.93;;;;;;;1.70;100.00;100932.59;5012052;28;20439;-44
2023/03/27 00:22:10;;;;;;;13.93;8.67;;;;;;;1.68;100.00;100940.59;5011868;28;20527;-43
2023/03/27 00:24:38;;;;;;;7.77;7.17;;;;;;;1.66;100.00;100936.44;5011025;28;20461;-45
2023/03/27 00:27:07;;;;;;;10.27;8.03;;;;;;;1.61;100.00;100930.75;5011597;28;20824;-43
2023/03/27 00:29:35;;;;;;;7.97;7.57;;;;;;;1.61;100.00;100936.03;5011567;28;20461;-43
2023/03/27 00:32:03;;;;;;;8.60;8.00;;;;;;;1.62;100.00;100930.59;5011666;28;20433;-44
2023/03/27 00:34:31;;;;;;;8.70;8.30;;;;;;;1.62;100.00;100940.28;5011266;28;20515;-42
2023/03/27 00:36:59;;;;;;;9.00;8.20;;;;;;;1.61;100.00;100942.06;5011621;28;20453;-44
2023/03/27 00:39:27;;;;;;;10.37;9.63;;;;;;;1.60;100.00;100934.34;5011727;28;20962;-42
2023/03/27 00:41:55;;;;;;;10.40;9.70;;;;;;;1.59;100.00;100936.13;5011344;28;20502;-46
2023/03/27 00:44:29;;;;;;;9.77;9.03;;;;;;;1.57;100.00;100937.25;5011113;28;20522;-43
2023/03/27 00:46:57;;;;;;;10.20;9.17;;;;;;;1.58;100.00;100936.28;5011401;28;20444;-47
2023/03/27 00:49:29;;;;;;;10.27;9.60;;;;;;;1.57;100.00;100945.97;5011396;28;20920;-43
2023/03/27 00:51:58;;;;;;;9.80;9.30;;;;;;;1.56;100.00;100946.06;5011140;28;20425;-45
2023/03/27 00:54:35;;;;;;;9.87;9.47;;;;;;;1.53;100.00;100947.19;5010863;28;20566;-43
2023/03/27 00:57:06;;;;;;;10.73;10.03;;;;;;;1.48;100.00;100949.38;5011496;28;20535;-44
2023/03/27 00:59:39;;;;;;;12.37;11.00;;;;;;;1.44;100.00;100947.16;5011492;28;20429;-43
2023/03/27 01:02:09;;;;;;;10.90;10.00;;;;;;;1.43;100.00;100956.00;5011467;28;20441;-46
2023/03/27 01:04:38;;;;;;;11.00;10.33;;;;;;;1.46;100.00;100953.13;5011041;28;20476;-45
2023/03/27 01:07:09;;;;;;;10.47;9.70;;;;;;;1.41;100.00;100950.03;5011214;28;20441;-43
2023/03/27 01:09:37;;;;;;;12.13;10.67;;;;;;;1.41;100.00;100947.41;5011377;28;20556;-43
2023/03/27 01:12:25;;;;;;;10.47;9.60;;;;;;;1.40;100.00;100946.59;5011282;28;20435;-44
2023/03/27 01:15:07;;;;;;;11.27;10.50;;;;;;;1.33;100.00;100940.19;5010964;28;20464;-43
2023/03/27 01:17:45;;;;;;;11.07;10.43;;;;;;;1.37;100.00;100938.97;5011678;28;20429;-43
2023/03/27 01:20:46;;;;;;;12.50;11.30;;;;;;;1.30;100.00;100950.13;5010995;28;20529;-46
2023/03/27 01:23:41;;;;;;;11.60;11.10;;;;;;;1.32;100.00;100942.94;5002480;28;20447;-43
2023/03/27 01:26:56;;;;;;;11.17;10.40;;;;;;;1.35;100.00;100946.16;5013764;28;20490;-43
2023/03/27 01:29:36;;;;;;;12.17;11.47;;;;;;;1.32;100.00;100956.91;5015079;28;20561;-44
2023/03/27 01:32:23;;;;;;;12.47;11.57;;;;;;;1.29;100.00;100943.22;5014932;28;20445;-43
2023/03/27 01:35:16;;;;;;;11.83;11.27;;;;;;;1.27;100.00;100947.78;5011603;28;20469;-44
2023/03/27 01:38:10;;;;;;;12.50;11.60;;;;;;;1.28;100.00;100955.53;5015052;28;20471;-43
2023/03/27 01:40:45;;;;;;;12.43;11.80;;;;;;;1.31;100.00;100950.03;5014861;28;20436;-46
2023/03/27 01:43:15;;;;;;;14.10;12.93;;;;;;;1.30;100.00;100944.88;5014626;28;20996;-43
2023/03/27 01:45:51;;;;;;;12.00;11.50;;;;;;;1.30;100.00;100950.97;5014039;28;20473;-43
2023/03/27 01:48:27;;;;;;;11.93;11.57;;;;;;;1.29;100.00;100957.19;5014707;28;20468;-43
2023/03/27 01:50:59;;;;;;;14.87;13.87;;;;;;;1.30;100.00;100953.59;5014994;28;20433;-44
2023/03/27 01:53:32;;;;;;;14.17;13.10;;;;;;;1.33;100.00;100957.75;5014607;28;20436;-43
2023/03/27 01:56:05;;;;;;;13.13;12.20;;;;;;;1.31;100.00;100968.41;5014224;28;20472;-43
2023/03/27 01:58:44;;;;;;;14.90;13.80;;;;;;;1.37;100.00;100959.16;5014648;28;20432;-43
2023/03/27 02:01:16;;;;;;;14.10;12.97;;;;;;;1.43;100.00;100967.34;5014434;28;20437;-44
2023/03/27 02:03:48;;;;;;;13.10;12.10;;;;;;;1.46;100.00;100964.47;5014269;28;21118;-49
2023/03/27 02:06:20;;;;;;;13.00;12.00;;;;;;;1.41;100.00;100958.75;5012676;28;20528;-43
2023/03/27 02:08:54;;;;;;;13.37;12.33;;;;;;;1.40;100.00;100961.53;5014264;28;20476;-45
2023/03/27 02:11:29;;;;;;;12.27;11.57;;;;;;;1.35;100.00;100969.78;5014220;28;20428;-51
2023/03/27 02:14:01;;;;;;;13.80;13.00;;;;;;;1.28;100.00;100955.53;5013773;28;20954;-48
2023/03/27 02:16:33;;;;;;;13.80;13.10;;;;;;;1.28;100.00;100965.22;5014326;28;21003;-46
2023/03/27 02:19:04;;;;;;;14.50;13.30;;;;;;;1.29;100.00;100964.22;5014385;28;20418;-43
2023/03/27 02:21:32;;;;;;;13.93;13.43;;;;;;;1.24;100.00;100967.25;5014005;28;20516;-44
2023/03/27 02:24:01;;;;;;;14.03;13.43;;;;;;;1.20;100.00;100968.47;5013575;28;20432;-44
2023/03/27 02:26:31;;;;;;;13.67;12.90;;;;;;;1.15;100.00;100965.41;5014309;28;20448;-45
2023/03/27 02:29:12;;;;;;;14.33;13.73;;;;;;;1.13;100.00;100969.97;5014254;28;20559;-44
2023/03/27 02:31:53;;;;;;;14.50;13.70;;;;;;;1.10;100.00;100973.72;5013683;28;20549;-42
2023/03/27 02:34:40;;;;;;;13.57;12.87;;;;;;;1.09;100.00;100979.06;5013479;28;20857;-43
2023/03/27 02:37:20;;;;;;;13.37;12.40;;;;;;;1.05;100.00;100989.00;5013451;28;20507;-44
2023/03/27 02:39:57;;;;;;;13.87;13.07;;;;;;;1.04;100.00;100986.53;5013342;28;20529;-46
2023/03/27 02:42:32;;;;;;;13.50;12.90;;;;;;;1.04;100.00;100983.88;5013615;28;20535;-43
2023/03/27 02:45:09;;;;;;;13.63;12.80;;;;;;;1.02;100.00;100988.41;5013586;28;20467;-46
2023/03/27 02:47:40;;;;;;;14.13;13.23;;;;;;;1.02;100.00;100976.13;5017666;28;20448;-43
2023/03/27 02:50:14;;;;;;;14.00;12.87;;;;;;;1.01;100.00;100990.25;5027450;28;20476;-43
2023/03/27 02:52:45;;;;;;;15.70;14.70;;;;;;;1.05;100.00;100994.25;5033098;28;20436;-45
2023/03/27 02:55:17;;;;;;;16.17;14.70;;;;;;;1.05;100.00;100990.78;5032824;28;20504;-45
2023/03/27 02:57:51;;;;;;;13.90;13.37;;;;;;;1.05;100.00;101001.28;5033337;28;20424;-44
2023/03/27 03:00:24;;;;;;;14.40;13.60;;;;;;;1.08;100.00;101001.03;5033365;28;20432;-46
2023/03/27 03:02:58;;;;;;;14.73;13.93;;;;;;;1.05;100.00;101011.78;5033313;28;20431;-43
2023/03/27 03:05:27;;;;;;;16.30;15.20;;;;;;;1.08;100.00;101009.75;5032287;28;20507;-43
2023/03/27 03:07:57;;;;;;;14.53;13.40;;;;;;;1.05;100.00;101003.91;5033007;28;20460;-43
2023/03/27 03:10:26;;;;;;;14.73;13.60;;;;;;;1.03;100.00;101008.47;5033023;28;21003;-42
2023/03/27 03:12:55;;;;;;;14.10;13.30;;;;;;;1.01;100.00;101003.38;5035292;28;20433;-45
2023/03/27 03:15:23;;;;;;;14.10;13.23;;;;;;;1.02;100.00;101009.44;5035847;28;20995;-43
2023/03/27 03:17:50;;;;;;;14.40;13.70;;;;;;;1.08;100.00;101008.91;5036223;28;20435;-46
2023/03/27 03:20:18;;;;;;;13.83;12.87;;;;;;;1.08;100.00;101017.63;5035761;28;20779;-43
2023/03/27 03:22:46;;;;;;;13.67;12.97;;;;;;;1.11;100.00;101013.91;5035469;28;21000;-43
2023/03/27 03:25:13;;;;;;;14.53;13.83;;;;;;;1.12;100.00;101023.47;5035221;28;20468;-43
2023/03/27 03:27:42;;;;;;;15.43;14.43;;;;;;;1.09;100.00;101024.56;5035665;28;20939;-43
2023/03/27 03:30:12;;;;;;;13.93;13.20;;;;;;;1.07;100.00;101030.91;5035474;28;20693;-43
2023/03/27 03:32:45;;;;;;;15.60;14.37;;;;;;;1.07;100.00;101037.00;5035223;28;21016;-46
2023/03/27 03:35:14;;;;;;;14.97;13.97;;;;;;;1.06;100.00;101032.69;5035196;28;20475;-47
2023/03/27 03:37:42;;;;;;;17.00;15.67;;;;;;;1.10;100.00;101035.91;5035942;28;20428;-43
2023/03/27 03:40:11;;;;;;;16.03;14.47;;;;;;;1.13;100.00;101045.31;5035619;28;20436;-45
2023/03/27 03:42:44;;;;;;;15.93;14.60;;;;;;;1.15;100.00;101048.63;5019523;28;20446;-46
2023/03/27 03:45:14;;;;;;;17.23;14.60;;;;;;;1.11;100.00;101042.81;5013622;28;20471;-44
2023/03/27 03:47:42;;;;;;;14.87;14.10;;;;;;;1.16;100.00;101052.94;5016138;28;20791;-47
2023/03/27 03:50:11;;;;;;;15.17;14.27;;;;;;;1.11;100.00;101048.06;5015677;28;20472;-49
2023/03/27 03:52:39;;;;;;;14.57;13.70;;;;;;;1.10;100.00;101055.13;5015451;28;20433;-47
2023/03/27 03:55:09;;;;;;;15.30;14.30;;;;;;;1.05;100.00;101056.44;5015021;28;20476;-44
2023/03/27 03:57:37;;;;;;;14.30;13.50;;;;;;;1.01;100.00;101053.25;5015958;28;20443;-44
2023/03/27 04:00:07;;;;;;;14.53;13.67;;;;;;;1.00;100.00;101061.25;5016076;28;20425;-46
2023/03/27 04:02:37;;;;;;;13.97;13.00;;;;;;;0.96;100.00;101057.22;5015687;28;20821;-46
2023/03/27 04:05:06;;;;;;;16.00;14.90;;;;;;;0.96;100.00;101065.09;5015731;28;20473;-43
2023/03/27 04:07:36;;;;;;;16.23;14.80;;;;;;;0.97;100.00;101064.13;5016265;28;20444;-43
2023/03/27 04:10:04;;;;;;;14.70;13.77;;;;;;;0.95;100.00;101061.66;5015797;28;20568;-46
2023/03/27 04:12:32;;;;;;;15.97;14.60;;;;;;;1.00;100.00;101067.34;5015831;28;20445;-47
2023/03/27 04:15:00;;;;;;;16.20;15.00;;;;;;;0.99;100.00;101068.28;5015243;28;20464;-47
2023/03/27 04:17:27;;;;;;;16.17;14.97;;;;;;;1.04;100.00;101066.16;5016005;28;20915;-47
2023/03/27 04:19:57;;;;;;;16.77;15.57;;;;;;;1.05;100.00;101073.03;5015732;28;20534;-43
2023/03/27 04:22:25;;;;;;;15.97;14.67;;;;;;;1.06;100.00;101074.72;5015644;28;20440;-43
2023/03/27 04:24:53;;;;;;;16.33;14.77;;;;;;;1.12;100.00;101089.13;5015067;28;20544;-42
2023/03/27 04:27:21;;;;;;;15.80;14.80;;;;;;;1.15;100.00;101090.66;5016204;28;20444;-47
2023/03/27 04:29:48;;;;;;;15.43;14.57;;;;;;;1.17;100.00;101091.34;5015676;28;20543;-49
2023/03/27 04:32:17;;;;;;;15.07;14.37;;;;;;;1.09;100.00;101084.13;5015537;28;20955;-45
2023/03/27 04:34:47;;;;;;;15.97;14.90;;;;;;;1.02;100.00;101078.53;5014049;28;20552;-49
2023/03/27 04:37:17;;;;;;;15.70;14.53;;;;;;;1.00;100.00;101077.00;5015425;28;20437;-43
2023/03/27 04:39:50;;;;;;;15.33;14.43;;;;;;;0.96;100.00;101079.06;5015786;28;20475;-47
2023/03/27 04:42:21;;;;;;;15.30;14.50;;;;;;;0.94;100.00;101080.16;5015456;28;20441;-46
2023/03/27 04:44:51;;;;;;;15.13;14.27;;;;;;;0.87;100.00;101079.81;5015352;28;20469;-45
2023/03/27 04:47:20;;;;;;;16.00;15.03;;;;;;;0.80;100.00;101089.16;5015867;28;20941;-49
2023/03/27 04:49:49;;;;;;;15.53;14.93;;;;;;;0.72;100.00;101091.56;5015252;28;20468;-44
2023/03/27 04:52:18;;;;;;;16.30;15.00;;;;;;;0.66;100.00;101093.88;5015611;28;20441;-46
2023/03/27 04:54:47;;;;;;;16.80;15.57;;;;;;;0.62;100.00;101103.78;5015485;28;20464;-46
2023/03/27 04:57:17;;;;;;;16.40;15.20;;;;;;;0.62;100.00;101109.03;5015275;28;20483;-47
2023/03/27 04:59:45;;;;;;;18.17;16.63;;;;;;;0.64;100.00;101114.13;5015011;28;20452;-43
2023/03/27 05:02:13;;;;;;;16.60;15.80;;;;;;;0.66;100.00;101113.06;5015141;28;20436;-43
2023/03/27 05:04:40;;;;;;;16.33;15.63;;;;;;;0.68;100.00;101124.28;5013449;28;20472;-44
2023/03/27 05:07:09;;;;;;;17.30;16.30;;;;;;;0.75;100.00;101119.34;5014994;28;20457;-45
2023/03/27 05:09:38;;;;;;;15.80;15.10;;;;;;;0.78;100.00;101126.97;5015356;28;20433;-47
2023/03/27 05:12:06;;;;;;;16.13;15.30;;;;;;;0.83;100.00;101125.66;5014957;28;20757;-44
2023/03/27 05:14:34;;;;;;;16.33;15.50;;;;;;;0.90;100.00;101126.81;5014704;28;20472;-44
2023/03/27 05:17:01;;;;;;;16.63;15.67;;;;;;;1.01;100.00;101133.84;5014652;28;20457;-46
2023/03/27 05:19:29;;;;;;;17.13;16.30;;;;;;;1.20;100.00;101143.63;5015288;28;20443;-45
2023/03/27 05:21:57;;;;;;;15.67;15.10;;;;;;;1.38;100.00;101142.13;5014761;28;20505;-44
2023/03/27 05:24:25;;;;;;;16.00;15.43;;;;;;;1.52;100.00;101145.25;5015084;28;20461;-43
2023/03/27 05:26:54;;;;;;;16.53;15.73;;;;;;;1.65;100.00;101129.28;5015210;28;20452;-43
2023/03/27 05:29:22;;;;;;;16.87;16.00;;;;;;;1.74;100.00;101144.28;5014690;28;20444;-45
2023/03/27 05:31:49;;;;;;;16.87;15.97;;;;;;;1.79;100.00;101133.41;5013973;28;20477;-43
2023/03/27 05:34:18;;;;;;;17.40;16.40;;;;;;;1.78;100.00;101135.19;5014307;28;20547;-49
2023/03/27 05:36:45;;;;;;;16.27;15.60;;;;;;;1.88;100.00;101138.69;5014555;28;20540;-43
2023/03/27 05:39:14;;;;;;;16.27;15.17;;;;;;;2.07;100.00;101146.66;5014190;28;20807;-44
2023/03/27 05:41:42;;;;;;;15.77;14.70;;;;;;;2.10;100.00;101140.31;5013815;28;20509;-44
2023/03/27 05:44:11;;;;;;;16.00;14.80;;;;;;;2.24;100.00;101151.28;5013303;28;20463;-43
2023/03/27 05:46:41;;;;;;;15.87;15.07;;;;;;;2.55;100.00;101146.81;5014108;28;20457;-43
2023/03/27 05:49:09;;;;;;;17.43;16.10;;;;;;;2.96;100.00;101151.03;5014066;28;20487;-43
2023/03/27 05:51:36;;;;;;;17.30;16.30;;;;;;;3.38;100.00;101154.22;5013409;28;20484;-43
2023/03/27 05:54:04;;;;;;;15.80;14.90;;;;;;;3.55;100.00;101153.53;5013129;28;20437;-43
2023/03/27 05:56:32;;;;;;;15.30;14.70;;;;;;;3.71;100.00;101159.03;5013076;28;20833;-43
2023/03/27 05:59:00;;;;;;;16.93;15.50;;;;;;;3.89;100.00;101165.25;5012996;28;20441;-44
2023/03/27 06:01:29;;;;;;;15.00;14.40;;;;;;;4.17;100.00;101163.50;5013200;28;20472;-43
2023/03/27 06:03:56;;;;;;;15.57;14.53;;;;;;;4.44;100.00;101165.31;5012187;28;20480;-43
2023/03/27 06:06:25;;;;;;;14.20;13.50;;;;;;;4.44;100.00;101158.22;5012596;28;20496;-46
2023/03/27 06:08:53;;;;;;;12.40;11.80;;;;;;;4.74;100.00;101164.16;5012577;28;20443;-43
2023/03/27 06:11:20;;;;;;;12.00;11.60;;;;;;;5.23;100.00;101168.94;5013262;28;20469;-43
2023/03/27 06:13:48;;;;;;;12.60;11.90;;;;;;;5.38;100.00;101163.94;5016461;28;20436;-44
2023/03/27 06:16:19;;;;;;;9.33;9.00;;;;;;;5.16;100.00;101162.63;5016149;28;20810;-44
2023/03/27 06:18:49;;;;;;;9.70;9.10;;;;;;;5.01;100.00;101183.47;5016356;28;20490;-46
2023/03/27 06:21:16;;;;;;;8.60;8.00;;;;;;;4.82;100.00;101173.00;5016189;28;20435;-44
2023/03/27 06:23:44;;;;;;;8.23;7.83;;;;;;;4.60;100.00;101167.31;5015741;28;20444;-45
2023/03/27 06:26:12;;;;;;;7.57;7.20;;;;;;;4.36;100.00;101187.16;5015571;28;20471;-44
2023/03/27 06:28:40;;;;;;;7.40;7.10;;;;;;;4.48;100.00;101185.97;5015695;28;20523;-44
2023/03/27 06:31:08;;;;;;;8.00;7.57;;;;;;;4.67;100.00;101181.59;5015390;28;20465;-43
2023/03/27 06:33:37;;;;;;;7.53;7.03;;;;;;;4.83;100.00;101179.97;5015628;28;20433;-44
2023/03/27 06:36:07;;;;;;;7.90;7.60;;;;;;;4.98;100.00;101185.56;5015071;28;20460;-44
2023/03/27 06:38:36;;;;;;;7.80;7.43;;;;;;;5.50;100.00;101168.00;5016142;28;20437;-44
2023/03/27 06:41:04;;;;;;;7.60;7.10;;;;;;;5.63;100.00;101171.09;5015606;28;20962;-45
2023/03/27 06:43:31;;;;;;;8.40;7.80;;;;;;;5.78;100.00;101169.56;5015105;28;20464;-43
2023/03/27 06:45:59;;;;;;;7.87;7.30;;;;;;;5.83;100.00;101183.16;5015025;28;20465;-44
2023/03/27 06:48:27;;;;;;;7.30;7.00;;;;;;;5.91;100.00;101183.22;5015575;28;20429;-45
2023/03/27 06:50:55;;;;;;;6.90;6.70;;;;;;;6.03;100.00;101186.47;5015736;28;20477;-43
2023/03/27 06:53:24;;;;;;;7.13;6.73;;;;;;;6.17;100.00;101190.34;5015631;28;20437;-44
2023/03/27 06:55:55;;;;;;;7.33;7.03;;;;;;;6.26;100.00;101192.03;5015283;28;20469;-46
2023/03/27 06:58:24;;;;;;;7.83;7.43;;;;;;;6.24;100.00;101191.38;5016295;28;20437;-45
2023/03/27 07:00:51;;;;;;;7.80;7.50;;;;;;;6.29;100.00;101197.03;5015657;28;20433;-46
2023/03/27 07:03:21;;;;;;;6.47;6.20;;;;;;;6.25;100.00;101195.66;5015583;28;20528;-45
2023/03/27 07:05:49;;;;;;;6.60;6.30;;;;;;;6.08;100.00;101200.91;5013945;28;20479;-47
2023/03/27 07:08:18;;;;;;;6.47;6.27;;;;;;;6.21;100.00;101205.78;5015990;28;20444;-45
2023/03/27 07:10:54;;;;;;;6.40;6.10;;;;;;;5.74;100.00;101207.06;5015839;28;20563;-44
2023/03/27 07:13:39;;;;;;;6.23;5.97;;;;;;;5.81;100.00;101216.88;5015229;28;20922;-46
2023/03/27 07:16:09;;;;;;;6.30;6.10;;;;;;;5.65;100.00;101227.34;5014651;28;20473;-44
2023/03/27 07:18:36;;;;;;;7.00;6.80;;;;;;;5.35;100.00;101233.00;5015124;28;20532;-45
2023/03/27 07:21:04;;;;;;;6.60;6.40;;;;;;;5.43;100.00;101230.47;5015471;28;20492;-49
2023/03/27 07:23:32;;;;;;;6.73;6.33;;;;;;;5.11;100.00;101222.22;5015235;28;20810;-45
2023/03/27 07:26:01;;;;;;;6.17;5.87;;;;;;;4.87;100.00;101230.69;5014598;28;20468;-43
2023/03/27 07:28:31;;;;;;;7.17;6.47;;;;;;;4.96;100.00;101238.56;5015603;28;20437;-44
2023/03/27 07:30:59;;;;;;;6.77;6.47;;;;;;;4.77;100.00;101241.34;5015057;28;20443;-46
2023/03/27 07:33:27;;;;;;;6.93;6.60;;;;;;;4.70;100.00;101234.97;5014972;28;20429;-44
2023/03/27 07:35:55;;;;;;;7.47;7.07;;;;;;;4.60;100.00;101244.72;5014441;28;20882;-44
2023/03/27 07:38:23;;;;;;;7.40;6.90;;;;;;;4.51;100.00;101242.97;5015129;28;20444;-46
2023/03/27 07:40:51;;;;;;;7.23;6.93;;;;;;;4.61;100.00;101242.91;5014729;28;20432;-46
2023/03/27 07:43:20;;;;;;;7.57;7.17;;;;;;;4.79;100.00;101249.09;5014782;28;20445;-44
2023/03/27 07:45:48;;;;;;;7.20;7.00;;;;;;;4.91;100.00;101259.31;5014669;28;20516;-43
2023/03/27 07:48:17;;;;;;;8.13;7.67;;;;;;;5.11;100.00;101259.22;5014691;28;20938;-44
2023/03/27 07:50:46;;;;;;;7.33;7.03;;;;;;;5.34;100.00;101258.66;5015325;28;20524;-51
2023/03/27 07:53:14;;;;;;;8.00;7.40;;;;;;;5.50;100.00;101263.25;5014652;28;20568;-44
2023/03/27 07:56:01;;;;;;;7.80;7.40;;;;;;;5.54;100.00;101269.91;5014432;28;20488;-43
2023/03/27 07:58:30;;;;;;;8.50;7.80;;;;;;;5.73;100.00;101261.81;5014935;28;20429;-46
2023/03/27 08:01:00;;;;;;;8.53;7.83;;;;;;;5.74;100.00;101262.63;5014728;28;20509;-48
2023/03/27 08:03:30;;;;;;;8.67;7.90;;;;;;;5.77;100.00;101257.03;5014570;28;20445;-48
2023/03/27 08:06:00;;;;;;;10.53;8.50;;;;;;;5.72;100.00;101269.91;5013989;28;20843;-43
2023/03/27 08:08:28;;;;;;;9.23;8.30;;;;;;;5.73;100.00;101261.81;5015350;28;20938;-49
2023/03/27 08:10:56;;;;;;;8.50;7.80;;;;;;;5.53;100.00;101270.88;5014547;28;20635;-44
2023/03/27 08:13:24;;;;;;;8.67;7.80;;;;;;;5.69;100.00;101259.63;5014270;28;20483;-47
2023/03/27 08:16:02;;;;;;;9.10;8.43;;;;;;;5.67;100.00;101267.72;5013758;28;20473;-45
2023/03/27 08:18:30;;;;;;;8.80;8.10;;;;;;;5.36;100.00;101272.53;5014405;28;21013;-45
2023/03/27 08:20:58;;;;;;;9.27;8.70;;;;;;;5.46;100.00;101285.72;5014402;28;20433;-44
2023/03/27 08:23:26;;;;;;;11.33;9.00;;;;;;;5.64;100.00;101283.91;5014004;28;20946;-44
2023/03/27 08:25:58;;;;;;;9.33;8.63;;;;;;;5.66;100.00;101281.94;5013672;28;20480;-44
2023/03/27 08:28:27;;;;;;;10.43;9.53;;;;;;;5.40;100.00;101276.56;5014009;28;20826;-44
2023/03/27 08:30:57;;;;;;;9.83;9.40;;;;;;;5.87;100.00;101279.00;5014128;28;20453;-45
2023/03/27 08:33:30;;;;;;;8.50;8.00;;;;;;;5.95;100.00;101284.34;5014046;28;20563;-49
2023/03/27 08:35:57;;;;;;;9.77;8.93;;;;;;;5.58;100.00;101295.91;5010134;28;20472;-45
2023/03/27 08:38:27;;;;;;;11.63;8.70;;;;;;;5.48;100.00;101287.22;5014395;28;20784;-45
2023/03/27 08:40:57;;;;;;;7.67;7.20;;;;;;;5.44;100.00;101279.72;5014064;28;20445;-46
2023/03/27 08:43:27;;;;;;;7.57;6.77;;;;;;;5.61;100.00;101281.56;5014229;28;20421;-44
2023/03/27 08:46:01;;;;;;;9.27;8.50;;;;;;;5.96;100.00;101291.31;5013449;28;20468;-45
2023/03/27 08:48:33;;;;;;;8.00;6.90;;;;;;;5.96;100.00;101281.56;5013985;28;20444;-47
2023/03/27 08:51:05;;;;;;;7.60;6.50;;;;;;;6.07;100.00;101286.59;5014214;28;20799;-44
2023/03/27 08:53:39;;;;;;;7.60;6.93;;;;;;;5.83;100.00;101293.47;5013720;28;20479;-45
2023/03/27 08:56:12;;;;;;;8.70;6.80;;;;;;;5.56;100.00;101300.50;5013138;28;20880;-46
2023/03/27 08:58:40;;;;;;;7.90;6.80;;;;;;;5.36;100.00;101292.88;5013909;28;20488;-45
2023/03/27 09:01:17;;;;;;;7.03;6.40;;;;;;;5.26;100.00;101303.50;5014256;28;20429;-46
2023/03/27 09:03:50;;;;;;;7.67;7.13;;;;;;;5.25;100.00;101304.50;5013397;28;20827;-47
2023/03/27 09:06:25;;;;;;;8.03;7.33;;;;;;;5.02;100.00;101317.28;5013535;28;20852;-49
2023/03/27 09:09:02;;;;;;;7.60;6.87;;;;;;;4.90;100.00;101318.44;5013985;28;20446;-46
2023/03/27 09:11:41;;;;;;;7.40;7.00;;;;;;;4.97;100.00;101308.97;5013561;28;20429;-44
2023/03/27 09:14:15;;;;;;;8.13;7.73;;;;;;;4.97;100.00;101322.16;5013205;28;20436;-46
2023/03/27 09:16:48;;;;;;;8.27;7.80;;;;;;;4.81;100.00;101336.97;5013326;28;20445;-44
2023/03/27 09:19:29;;;;;;;9.60;8.80;;;;;;;4.51;100.00;101345.16;5013825;28;20492;-47
2023/03/27 09:22:04;;;;;;;9.07;8.43;;;;;;;4.00;100.00;101375.38;5013633;28;20784;-47
2023/03/27 09:24:36;;;;;;;7.90;7.50;;;;;;;3.13;100.00;101392.81;5013778;28;20464;-44
2023/03/27 09:27:13;;;;;;;7.53;5.90;;;;;;;2.58;100.00;101396.69;5013537;28;20845;-46
2023/03/27 09:29:42;;;;;;;7.10;6.40;;;;;;;2.48;100.00;101381.81;5014688;28;20433;-49
2023/03/27 09:32:14;;;;;;;6.67;6.27;;;;;;;2.47;100.00;101374.84;5014527;28;20483;-44
2023/03/27 09:34:46;;;;;;;8.27;7.57;;;;;;;2.72;100.00;101385.81;5012506;28;20986;-49
2023/03/27 09:37:16;;;;;;;8.70;8.40;;;;;;;3.17;100.00;101380.19;5011030;28;20452;-42
2023/03/27 09:39:49;;;;;;;12.23;11.17;;;;;;;3.90;100.00;101380.63;5010999;28;20856;-42
2023/03/27 09:42:23;;;;;;;12.47;11.50;;;;;;;4.34;100.00;101375.75;5011164;28;20417;-43
2023/03/27 09:44:55;;;;;;;11.73;11.23;;;;;;;4.31;100.00;101368.09;5010683;28;20472;-44
2023/03/27 09:47:34;;;;;;;12.97;12.07;;;;;;;4.33;100.00;101366.97;5013282;28;20914;-43
2023/03/27 09:50:22;;;;;;;12.90;12.10;;;;;;;4.24;100.00;101367.81;5014836;28;20436;-45
2023/03/27 09:53:07;;;;;;;11.93;11.53;;;;;;;4.15;100.00;101373.13;5014756;28;20483;-44
2023/03/27 09:55:35;;;;;;;13.03;12.47;;;;;;;4.42;100.00;101365.31;5014245;28;21163;-47
2023/03/27 09:58:13;;;;;;;12.20;11.60;;;;;;;4.36;100.00;101368.53;5014951;28;20433;-45
2023/03/27 10:00:41;;;;;;;12.13;11.23;;;;;;;4.58;100.00;101375.28;5015064;28;20776;-44
2023/03/27 10:03:16;;;;;;;11.50;10.90;;;;;;;4.45;100.00;101367.66;5014462;28;20417;-42
2023/03/27 10:05:45;;;;;;;11.07;10.57;;;;;;;4.67;100.00;101367.34;5014023;28;20488;-46
2023/03/27 10:08:32;;;;;;;12.40;11.50;;;;;;;4.39;100.00;101361.13;5014846;28;20822;-44
2023/03/27 10:11:00;;;;;;;10.90;10.40;;;;;;;4.47;100.00;101363.09;5014572;28;20443;-46
2023/03/27 10:13:30;;;;;;;10.83;10.13;;;;;;;4.55;100.00;101354.44;5014344;28;20483;-45
2023/03/27 10:15:59;;;;;;;10.57;9.97;;;;;;;4.82;100.00;101347.41;5013960;28;20479;-43
2023/03/27 10:18:30;;;;;;;10.53;9.90;;;;;;;4.56;100.00;101346.38;5014428;28;20806;-45
2023/03/27 10:21:01;;;;;;;10.63;10.03;;;;;;;4.55;100.00;101333.31;5014614;28;20440;-43
2023/03/27 10:23:39;;;;;;;11.80;11.10;;;;;;;4.87;100.00;101347.78;5013608;28;20416;-42
2023/03/27 10:26:10;;;;;;;11.40;11.00;;;;;;;5.24;100.00;101352.22;5013422;28;20469;-46
2023/03/27 10:28:39;;;;;;;12.83;12.27;;;;;;;5.50;100.00;101350.53;5013903;28;20420;-43
2023/03/27 10:31:23;;;;;;;12.40;11.47;;;;;;;5.83;100.00;101349.06;5013932;28;20492;-42
2023/03/27 10:33:53;;;;;;;13.10;11.90;;;;;;;6.21;100.00;101340.84;5014185;28;20504;-46
2023/03/27 10:36:21;;;;;;;12.90;12.10;;;;;;;6.74;100.00;101345.16;5004013;28;20464;-45
2023/03/27 10:38:55;;;;;;;13.27;12.60;;;;;;;7.02;100.00;101343.97;5014073;28;20520;-43
2023/03/27 10:41:24;;;;;;;13.23;12.37;;;;;;;7.32;100.00;101335.47;5013955;28;20433;-46
2023/03/27 10:43:57;;;;;;;12.77;12.07;;;;;;;7.26;100.00;101337.97;5013481;28;20429;-45
2023/03/27 10:46:27;;;;;;;12.20;11.50;;;;;;;6.62;100.00;101331.34;5014029;28;20457;-47
2023/03/27 10:49:08;;;;;;;11.07;10.37;;;;;;;6.89;100.00;101344.41;5013733;28;20472;-48
2023/03/27 10:51:44;;;;;;;12.03;11.10;;;;;;;6.41;100.00;101344.13;5013475;28;20930;-50
2023/03/27 10:54:22;;;;;;;11.03;10.33;;;;;;;6.67;100.00;101337.00;5013034;28;20548;-49
2023/03/27 10:56:57;;;;;;;11.60;11.00;;;;;;;6.59;100.00;101343.09;5013548;28;20890;-49
2023/03/27 10:59:30;;;;;;;11.47;10.77;;;;;;;6.56;100.00;101342.56;5013607;28;20806;-43
2023/03/27 11:02:14;;;;;;;9.80;9.40;;;;;;;6.73;100.00;101340.84;5013438;28;20422;-47
2023/03/27 11:04:48;;;;;;;9.10;8.40;;;;;;;7.54;100.00;101326.06;5012932;28;20540;-47
2023/03/27 11:07:22;;;;;;;7.63;7.30;;;;;;;7.47;100.00;101335.66;5013536;28;20457;-46
2023/03/27 11:09:57;;;;;;;8.50;8.00;;;;;;;7.48;100.00;101322.25;5013196;28;20433;-46
2023/03/27 11:12:29;;;;;;;9.83;9.17;;;;;;;7.25;100.00;101326.50;5013298;28;20429;-43
2023/03/27 11:15:02;;;;;;;8.30;7.67;;;;;;;7.26;100.00;101337.97;5012815;28;20531;-45
2023/03/27 11:17:38;;;;;;;8.13;7.60;;;;;;;6.92;100.00;101340.63;5013257;28;20440;-47
2023/03/27 11:20:18;;;;;;;9.20;8.53;;;;;;;6.49;100.00;101336.22;5013199;28;20966;-46
2023/03/27 11:22:50;;;;;;;8.47;7.93;;;;;;;6.36;100.00;101346.41;5012971;28;20579;-48
2023/03/27 11:25:24;;;;;;;9.40;8.60;;;;;;;6.32;100.00;101334.44;5007921;28;20480;-45
2023/03/27 11:28:01;;;;;;;8.00;7.63;;;;;;;6.03;100.00;101338.19;5013128;28;20432;-50
2023/03/27 11:30:34;;;;;;;10.20;9.20;;;;;;;6.28;100.00;101338.38;5013118;28;20950;-44
2023/03/27 11:33:14;;;;;;;9.20;8.63;;;;;;;6.30;100.00;101339.09;5012518;28;20425;-46
2023/03/27 11:35:50;;;;;;;9.17;8.63;;;;;;;6.15;100.00;101340.63;5012338;28;20488;-43
2023/03/27 11:38:23;;;;;;;9.97;9.33;;;;;;;6.14;100.00;101339.78;5012773;28;20953;-44